ELY5484 LATI-LLBG
Flight info
| Callsign | ELY5484 |
|---|---|
| Flight time | 2h 19m |
| Altitude | 39000 |
| Route | ODRAS P92 MAVAR DCT NEGOT DCT DISOR UL608 FSK DCT RIKSO UP14 LAVTA UN135 NESIL UT39 TOMBI DCT IDAKU L35 PIKOG L609 ZUKKO |
| Aircraft | B738/M-SDE2E3FGHIRWXY/LB1 |
Departure
| Time | 2026-05-09 08:42 |
|---|---|
| Airport | Tirana International Airport Mother Teresa (LATI) |
Arrival
| Time | 2026-05-09 11:01 |
|---|---|
| Airport | Ben Gurion International Airport (LLBG) |
| Time | Latitude | Longitude | Altitude | Speed | Heading |
|---|---|---|---|---|---|
| 2026-05-09 08:26 | 41.42455 | 19.71450 | 137 ft | 0 kts | 264° |
| 2026-05-09 08:35 | 41.42456 | 19.71459 | 137 ft | 4 kts | 267° |
| 2026-05-09 08:36 | 41.42453 | 19.71493 | 128 ft | 4 kts | 300° |
| 2026-05-09 08:36 | 41.42436 | 19.71514 | 114 ft | 4 kts | 350° |
| 2026-05-09 08:36 | 41.42431 | 19.71515 | 114 ft | 1 kts | 354° |
| 2026-05-09 08:39 | 41.42454 | 19.71512 | 117 ft | 7 kts | 354° |
| 2026-05-09 08:39 | 41.42527 | 19.71502 | 115 ft | 13 kts | 354° |
| 2026-05-09 08:39 | 41.42616 | 19.71490 | 115 ft | 11 kts | 354° |
| 2026-05-09 08:40 | 41.42664 | 19.71552 | 117 ft | 11 kts | 83° |
| 2026-05-09 08:40 | 41.42671 | 19.71653 | 117 ft | 11 kts | 84° |
| 2026-05-09 08:40 | 41.42679 | 19.71751 | 117 ft | 10 kts | 84° |
| 2026-05-09 08:40 | 41.42686 | 19.71846 | 117 ft | 10 kts | 88° |
| 2026-05-09 08:41 | 41.42638 | 19.71901 | 117 ft | 10 kts | 172° |
| 2026-05-09 08:41 | 41.42537 | 19.71914 | 117 ft | 30 kts | 174° |
| 2026-05-09 08:41 | 41.42059 | 19.71979 | 122 ft | 106 kts | 174° |
| 2026-05-09 08:41 | 41.41097 | 19.72100 | 138 ft | 168 kts | 176° |
| 2026-05-09 08:42 | 41.39915 | 19.72235 | 881 ft | 171 kts | 174° |
| 2026-05-09 08:42 | 41.38720 | 19.72394 | 1730 ft | 174 kts | 175° |
| 2026-05-09 08:42 | 41.37493 | 19.72576 | 2461 ft | 182 kts | 174° |
| 2026-05-09 08:42 | 41.36183 | 19.72793 | 3190 ft | 191 kts | 175° |
| 2026-05-09 08:43 | 41.34837 | 19.73013 | 3858 ft | 203 kts | 175° |
| 2026-05-09 08:43 | 41.33392 | 19.73237 | 4313 ft | 218 kts | 175° |
| 2026-05-09 08:43 | 41.31838 | 19.73469 | 4755 ft | 232 kts | 175° |
| 2026-05-09 08:43 | 41.30204 | 19.73711 | 5228 ft | 245 kts | 175° |
| 2026-05-09 08:44 | 41.28411 | 19.73972 | 5587 ft | 269 kts | 175° |
| 2026-05-09 08:44 | 41.26524 | 19.74249 | 6321 ft | 277 kts | 175° |
| 2026-05-09 08:44 | 41.24628 | 19.74717 | 7152 ft | 281 kts | 158° |
| 2026-05-09 08:44 | 41.23096 | 19.76315 | 7995 ft | 284 kts | 127° |
| 2026-05-09 08:45 | 41.22284 | 19.78718 | 8733 ft | 292 kts | 100° |
| 2026-05-09 08:45 | 41.22327 | 19.81419 | 9465 ft | 297 kts | 74° |
| 2026-05-09 08:45 | 41.23242 | 19.83855 | 10262 ft | 298 kts | 50° |
| 2026-05-09 08:45 | 41.24777 | 19.85817 | 10607 ft | 318 kts | 37° |
| 2026-05-09 08:46 | 41.26560 | 19.87730 | 10909 ft | 338 kts | 43° |
| 2026-05-09 08:46 | 41.28146 | 19.90093 | 11583 ft | 345 kts | 49° |
| 2026-05-09 08:46 | 41.29668 | 19.92580 | 12411 ft | 347 kts | 50° |
| 2026-05-09 08:46 | 41.31190 | 19.95089 | 13245 ft | 351 kts | 49° |
| 2026-05-09 08:47 | 41.32737 | 19.97624 | 14000 ft | 355 kts | 49° |
| 2026-05-09 08:47 | 41.34305 | 20.00176 | 14685 ft | 359 kts | 49° |
| 2026-05-09 08:47 | 41.35903 | 20.02759 | 15348 ft | 364 kts | 49° |
| 2026-05-09 08:47 | 41.37524 | 20.05370 | 15997 ft | 368 kts | 49° |
| 2026-05-09 08:48 | 41.39169 | 20.08013 | 16638 ft | 373 kts | 48° |
| 2026-05-09 08:48 | 41.40833 | 20.10687 | 17291 ft | 377 kts | 48° |
| 2026-05-09 08:48 | 41.42519 | 20.13394 | 17939 ft | 382 kts | 48° |
| 2026-05-09 08:48 | 41.44225 | 20.16136 | 18561 ft | 386 kts | 48° |
| 2026-05-09 08:49 | 41.45945 | 20.18905 | 19165 ft | 389 kts | 48° |
| 2026-05-09 08:49 | 41.47676 | 20.21693 | 19775 ft | 392 kts | 48° |
| 2026-05-09 08:49 | 41.49420 | 20.24505 | 20375 ft | 395 kts | 48° |
| 2026-05-09 08:49 | 41.51177 | 20.27340 | 20952 ft | 398 kts | 48° |
| 2026-05-09 08:50 | 41.52946 | 20.30198 | 21509 ft | 401 kts | 48° |
| 2026-05-09 08:50 | 41.54731 | 20.33083 | 22080 ft | 405 kts | 48° |
| 2026-05-09 08:50 | 41.56530 | 20.35995 | 22624 ft | 408 kts | 48° |
| 2026-05-09 08:50 | 41.58343 | 20.38932 | 23170 ft | 411 kts | 48° |
| 2026-05-09 08:51 | 41.60171 | 20.41896 | 23698 ft | 415 kts | 48° |
| 2026-05-09 08:51 | 41.62011 | 20.44882 | 24144 ft | 418 kts | 48° |
| 2026-05-09 08:51 | 41.63862 | 20.47889 | 24604 ft | 420 kts | 48° |
| 2026-05-09 08:51 | 41.65464 | 20.51184 | 24991 ft | 429 kts | 65° |
| 2026-05-09 08:52 | 41.66210 | 20.55059 | 25411 ft | 435 kts | 84° |
| 2026-05-09 08:52 | 41.66052 | 20.59041 | 25844 ft | 438 kts | 101° |
| 2026-05-09 08:52 | 41.65362 | 20.63069 | 26310 ft | 440 kts | 103° |
| 2026-05-09 08:52 | 41.64622 | 20.67000 | 26693 ft | 443 kts | 104° |
| 2026-05-09 08:53 | 41.63850 | 20.71003 | 27065 ft | 447 kts | 104° |
| 2026-05-09 08:53 | 41.63078 | 20.75033 | 27473 ft | 449 kts | 104° |
| 2026-05-09 08:53 | 41.62313 | 20.79090 | 27884 ft | 451 kts | 104° |
| 2026-05-09 08:53 | 41.61557 | 20.83161 | 28263 ft | 453 kts | 104° |
| 2026-05-09 08:54 | 41.60804 | 20.87255 | 28619 ft | 455 kts | 103° |
| 2026-05-09 08:54 | 41.60051 | 20.91370 | 28976 ft | 457 kts | 103° |
| 2026-05-09 08:54 | 41.59294 | 20.95511 | 29325 ft | 460 kts | 103° |
| 2026-05-09 08:54 | 41.58535 | 20.99664 | 29674 ft | 462 kts | 103° |
| 2026-05-09 08:55 | 41.57769 | 21.03841 | 30031 ft | 464 kts | 104° |
| 2026-05-09 08:55 | 41.56999 | 21.08031 | 30320 ft | 466 kts | 104° |
| 2026-05-09 08:55 | 41.56223 | 21.12241 | 30591 ft | 468 kts | 104° |
| 2026-05-09 08:55 | 41.55443 | 21.16467 | 30871 ft | 469 kts | 104° |
| 2026-05-09 08:56 | 41.54658 | 21.20703 | 31142 ft | 471 kts | 104° |
| 2026-05-09 08:56 | 41.53867 | 21.24961 | 31360 ft | 473 kts | 104° |
| 2026-05-09 08:56 | 41.53073 | 21.29231 | 31608 ft | 476 kts | 104° |
| 2026-05-09 08:56 | 41.52273 | 21.33518 | 31898 ft | 476 kts | 104° |
| 2026-05-09 08:57 | 41.51474 | 21.37795 | 32349 ft | 473 kts | 104° |
| 2026-05-09 08:57 | 41.50678 | 21.42044 | 32714 ft | 472 kts | 104° |
| 2026-05-09 08:57 | 41.49879 | 21.46302 | 32975 ft | 473 kts | 104° |
| 2026-05-09 08:57 | 41.49077 | 21.50561 | 33280 ft | 473 kts | 104° |
| 2026-05-09 08:58 | 41.48276 | 21.54812 | 33634 ft | 472 kts | 104° |
| 2026-05-09 08:58 | 41.47475 | 21.59050 | 33992 ft | 471 kts | 104° |
| 2026-05-09 08:58 | 41.46673 | 21.63281 | 34249 ft | 471 kts | 104° |
| 2026-05-09 08:58 | 41.45870 | 21.67512 | 34525 ft | 472 kts | 104° |
| 2026-05-09 08:59 | 41.45064 | 21.71751 | 34783 ft | 472 kts | 104° |
| 2026-05-09 08:59 | 41.44505 | 21.74545 | 34928 ft | 472 kts | 107° |
| 2026-05-09 08:59 | 41.43480 | 21.78702 | 35135 ft | 472 kts | 110° |
| 2026-05-09 08:59 | 41.42353 | 21.82816 | 35330 ft | 473 kts | 111° |
| 2026-05-09 09:00 | 41.41189 | 21.86916 | 35554 ft | 473 kts | 111° |
| 2026-05-09 09:00 | 41.40025 | 21.91006 | 35801 ft | 472 kts | 111° |
| 2026-05-09 09:00 | 41.38872 | 21.95102 | 35986 ft | 473 kts | 111° |
| 2026-05-09 09:00 | 41.37727 | 21.99218 | 36175 ft | 474 kts | 110° |
| 2026-05-09 09:01 | 41.36591 | 22.03338 | 36380 ft | 474 kts | 110° |
| 2026-05-09 09:01 | 41.35461 | 22.07457 | 36618 ft | 473 kts | 110° |
| 2026-05-09 09:01 | 41.34335 | 22.11570 | 36825 ft | 474 kts | 110° |
| 2026-05-09 09:01 | 41.33204 | 22.15695 | 36990 ft | 475 kts | 110° |
| 2026-05-09 09:02 | 41.32071 | 22.19822 | 37193 ft | 475 kts | 110° |
| 2026-05-09 09:02 | 41.30938 | 22.23937 | 37431 ft | 474 kts | 110° |
| 2026-05-09 09:02 | 41.29802 | 22.28053 | 37617 ft | 474 kts | 110° |
| 2026-05-09 09:02 | 41.28664 | 22.32170 | 37815 ft | 474 kts | 110° |
| 2026-05-09 09:03 | 41.27524 | 22.36286 | 37969 ft | 475 kts | 110° |
| 2026-05-09 09:03 | 41.26380 | 22.40408 | 38119 ft | 476 kts | 110° |
| 2026-05-09 09:03 | 41.25234 | 22.44534 | 38231 ft | 477 kts | 110° |
| 2026-05-09 09:03 | 41.24081 | 22.48677 | 38360 ft | 478 kts | 111° |
| 2026-05-09 09:04 | 41.22925 | 22.52823 | 38532 ft | 478 kts | 111° |
| 2026-05-09 09:04 | 41.21769 | 22.56963 | 38710 ft | 478 kts | 111° |
| 2026-05-09 09:04 | 41.20612 | 22.61103 | 38836 ft | 478 kts | 111° |
| 2026-05-09 09:04 | 41.19453 | 22.65240 | 38967 ft | 478 kts | 111° |
| 2026-05-09 09:05 | 41.18292 | 22.69378 | 39044 ft | 478 kts | 111° |
| 2026-05-09 09:05 | 41.15968 | 22.77641 | 39069 ft | 478 kts | 111° |
| 2026-05-09 09:06 | 41.13635 | 22.85914 | 39072 ft | 479 kts | 111° |
| 2026-05-09 09:06 | 41.11291 | 22.94197 | 39070 ft | 480 kts | 111° |
| 2026-05-09 09:07 | 41.08231 | 23.02000 | 39064 ft | 477 kts | 129° |
| 2026-05-09 09:07 | 41.04053 | 23.08719 | 39064 ft | 475 kts | 132° |
| 2026-05-09 09:08 | 40.99777 | 23.15395 | 39055 ft | 475 kts | 132° |
| 2026-05-09 09:08 | 40.95530 | 23.22091 | 39064 ft | 475 kts | 131° |
| 2026-05-09 09:09 | 40.91304 | 23.28808 | 39061 ft | 475 kts | 131° |
| 2026-05-09 09:09 | 40.87085 | 23.35521 | 39059 ft | 475 kts | 131° |
| 2026-05-09 09:10 | 40.82861 | 23.42227 | 39053 ft | 475 kts | 131° |
| 2026-05-09 09:10 | 40.78634 | 23.48920 | 39058 ft | 474 kts | 131° |
| 2026-05-09 09:11 | 40.74406 | 23.55598 | 39053 ft | 474 kts | 132° |
| 2026-05-09 09:11 | 40.70174 | 23.62268 | 39054 ft | 474 kts | 132° |
| 2026-05-09 09:12 | 40.65938 | 23.68930 | 39052 ft | 474 kts | 132° |
| 2026-05-09 09:12 | 40.61701 | 23.75579 | 39046 ft | 474 kts | 132° |
| 2026-05-09 09:13 | 40.57459 | 23.82220 | 39056 ft | 474 kts | 132° |
| 2026-05-09 09:13 | 40.53214 | 23.88853 | 39052 ft | 474 kts | 132° |
| 2026-05-09 09:14 | 40.48959 | 23.95487 | 39053 ft | 475 kts | 132° |
| 2026-05-09 09:14 | 40.44722 | 24.02078 | 39049 ft | 476 kts | 132° |
| 2026-05-09 09:15 | 40.40446 | 24.08715 | 39048 ft | 476 kts | 132° |
| 2026-05-09 09:15 | 40.36156 | 24.15360 | 39054 ft | 477 kts | 133° |
| 2026-05-09 09:16 | 40.31860 | 24.22001 | 39052 ft | 478 kts | 133° |
| 2026-05-09 09:16 | 40.25393 | 24.31969 | 39048 ft | 479 kts | 133° |
| 2026-05-09 09:17 | 40.21068 | 24.38618 | 39048 ft | 480 kts | 133° |
| 2026-05-09 09:17 | 40.16734 | 24.45267 | 39045 ft | 480 kts | 133° |
| 2026-05-09 09:18 | 40.12392 | 24.51913 | 39044 ft | 481 kts | 133° |
| 2026-05-09 09:18 | 40.08044 | 24.58555 | 39045 ft | 481 kts | 133° |
| 2026-05-09 09:19 | 40.03690 | 24.65192 | 39044 ft | 481 kts | 133° |
| 2026-05-09 09:19 | 39.99329 | 24.71825 | 39046 ft | 481 kts | 133° |
| 2026-05-09 09:20 | 39.94966 | 24.78446 | 39045 ft | 482 kts | 133° |
| 2026-05-09 09:20 | 39.90598 | 24.85061 | 39045 ft | 481 kts | 133° |
| 2026-05-09 09:21 | 39.86224 | 24.91671 | 39046 ft | 481 kts | 133° |
| 2026-05-09 09:21 | 39.81851 | 24.98265 | 39046 ft | 481 kts | 133° |
| 2026-05-09 09:22 | 39.77472 | 25.04854 | 39044 ft | 481 kts | 134° |
| 2026-05-09 09:22 | 39.73118 | 25.11392 | 39047 ft | 481 kts | 134° |
| 2026-05-09 09:23 | 39.68735 | 25.17960 | 39046 ft | 481 kts | 134° |
| 2026-05-09 09:23 | 39.64344 | 25.24525 | 39048 ft | 481 kts | 134° |
| 2026-05-09 09:24 | 39.59950 | 25.31081 | 39047 ft | 481 kts | 134° |
| 2026-05-09 09:24 | 39.55555 | 25.37626 | 39050 ft | 481 kts | 134° |
| 2026-05-09 09:25 | 39.51155 | 25.44163 | 39049 ft | 481 kts | 134° |
| 2026-05-09 09:25 | 39.46752 | 25.50691 | 39051 ft | 481 kts | 134° |
| 2026-05-09 09:26 | 39.42345 | 25.57213 | 39051 ft | 481 kts | 134° |
| 2026-05-09 09:26 | 39.37932 | 25.63729 | 39056 ft | 481 kts | 134° |
| 2026-05-09 09:27 | 39.33516 | 25.70235 | 39050 ft | 482 kts | 134° |
| 2026-05-09 09:27 | 39.29094 | 25.76737 | 39058 ft | 482 kts | 134° |
| 2026-05-09 09:28 | 39.24665 | 25.83236 | 39060 ft | 482 kts | 135° |
| 2026-05-09 09:28 | 39.20232 | 25.89728 | 39061 ft | 483 kts | 135° |
| 2026-05-09 09:29 | 39.15786 | 25.96223 | 39059 ft | 483 kts | 135° |
| 2026-05-09 09:29 | 39.11335 | 26.02716 | 39058 ft | 484 kts | 135° |
| 2026-05-09 09:30 | 39.06906 | 26.09161 | 39064 ft | 484 kts | 135° |
| 2026-05-09 09:30 | 39.02440 | 26.15646 | 39065 ft | 485 kts | 135° |
| 2026-05-09 09:31 | 38.97962 | 26.22137 | 39057 ft | 485 kts | 135° |
| 2026-05-09 09:32 | 38.91238 | 26.31860 | 39064 ft | 485 kts | 135° |
| 2026-05-09 09:32 | 38.86753 | 26.38343 | 39068 ft | 486 kts | 133° |
| 2026-05-09 09:32 | 38.84789 | 26.41900 | 39062 ft | 491 kts | 122° |
| 2026-05-09 09:33 | 38.83307 | 26.45855 | 39077 ft | 493 kts | 112° |
| 2026-05-09 09:33 | 38.82317 | 26.50071 | 39059 ft | 495 kts | 101° |
| 2026-05-09 09:33 | 38.81765 | 26.54427 | 39086 ft | 495 kts | 98° |
| 2026-05-09 09:34 | 38.80810 | 26.63181 | 39072 ft | 496 kts | 98° |
| 2026-05-09 09:34 | 38.79790 | 26.71924 | 39069 ft | 496 kts | 99° |
| 2026-05-09 09:36 | 38.73900 | 27.01604 | 39059 ft | 489 kts | 128° |
| 2026-05-09 09:36 | 38.71876 | 27.05092 | 39081 ft | 487 kts | 131° |
| 2026-05-09 09:37 | 38.67753 | 27.11901 | 39071 ft | 488 kts | 131° |
| 2026-05-09 09:37 | 38.63628 | 27.18787 | 39071 ft | 487 kts | 130° |
| 2026-05-09 09:38 | 38.59509 | 27.25754 | 39071 ft | 488 kts | 130° |
| 2026-05-09 09:38 | 38.55452 | 27.32620 | 39074 ft | 487 kts | 130° |
| 2026-05-09 09:39 | 38.51362 | 27.39515 | 39081 ft | 487 kts | 130° |
| 2026-05-09 09:39 | 38.47256 | 27.46417 | 39080 ft | 488 kts | 131° |
| 2026-05-09 09:40 | 38.43134 | 27.53328 | 39069 ft | 490 kts | 131° |
| 2026-05-09 09:40 | 38.38998 | 27.60253 | 39084 ft | 491 kts | 131° |
| 2026-05-09 09:41 | 38.34855 | 27.67176 | 39094 ft | 492 kts | 131° |
| 2026-05-09 09:41 | 38.30698 | 27.74110 | 39108 ft | 493 kts | 131° |
| 2026-05-09 09:42 | 38.26533 | 27.81043 | 39102 ft | 493 kts | 131° |
| 2026-05-09 09:42 | 38.22359 | 27.87978 | 39089 ft | 493 kts | 131° |
| 2026-05-09 09:43 | 38.18190 | 27.94897 | 39105 ft | 493 kts | 131° |
| 2026-05-09 09:43 | 38.14010 | 28.01820 | 39105 ft | 494 kts | 131° |
| 2026-05-09 09:44 | 38.09830 | 28.08732 | 39112 ft | 494 kts | 131° |
| 2026-05-09 09:44 | 38.05643 | 28.15638 | 39108 ft | 494 kts | 131° |
| 2026-05-09 09:45 | 38.01446 | 28.22548 | 39116 ft | 494 kts | 131° |
| 2026-05-09 09:45 | 37.97239 | 28.29458 | 39108 ft | 496 kts | 131° |
| 2026-05-09 09:46 | 37.93025 | 28.36366 | 39113 ft | 495 kts | 131° |
| 2026-05-09 09:46 | 37.88828 | 28.43268 | 39114 ft | 495 kts | 128° |
| 2026-05-09 09:47 | 37.84840 | 28.50356 | 39124 ft | 493 kts | 130° |
| 2026-05-09 09:47 | 37.81373 | 28.56073 | 39115 ft | 492 kts | 131° |
| 2026-05-09 09:48 | 37.76525 | 28.64048 | 39127 ft | 492 kts | 130° |
| 2026-05-09 09:48 | 37.72395 | 28.70936 | 39127 ft | 492 kts | 130° |
| 2026-05-09 09:49 | 37.68275 | 28.77844 | 39131 ft | 492 kts | 130° |
| 2026-05-09 09:49 | 37.64822 | 28.83628 | 39132 ft | 493 kts | 130° |
| 2026-05-09 09:50 | 37.60690 | 28.90531 | 39135 ft | 493 kts | 130° |
| 2026-05-09 09:50 | 37.56550 | 28.97429 | 39136 ft | 493 kts | 130° |
| 2026-05-09 09:51 | 37.52405 | 29.04320 | 39139 ft | 493 kts | 130° |
| 2026-05-09 09:51 | 37.48283 | 29.11158 | 39149 ft | 494 kts | 130° |
| 2026-05-09 09:52 | 37.44133 | 29.18033 | 39149 ft | 493 kts | 130° |
| 2026-05-09 09:52 | 37.39971 | 29.24908 | 39149 ft | 494 kts | 130° |
| 2026-05-09 09:53 | 37.35800 | 29.31784 | 39140 ft | 495 kts | 130° |
| 2026-05-09 09:53 | 37.31622 | 29.38658 | 39153 ft | 495 kts | 130° |
| 2026-05-09 09:54 | 37.27432 | 29.45538 | 39138 ft | 496 kts | 130° |
| 2026-05-09 09:54 | 37.23241 | 29.52407 | 39151 ft | 496 kts | 130° |
| 2026-05-09 09:55 | 37.18863 | 29.59071 | 39135 ft | 492 kts | 141° |
| 2026-05-09 09:55 | 37.13734 | 29.64712 | 39145 ft | 490 kts | 143° |
| 2026-05-09 09:56 | 37.08533 | 29.70249 | 39146 ft | 491 kts | 143° |
| 2026-05-09 09:56 | 37.03356 | 29.75834 | 39129 ft | 491 kts | 143° |
| 2026-05-09 09:57 | 36.98203 | 29.81449 | 39141 ft | 491 kts | 143° |
| 2026-05-09 09:57 | 36.93052 | 29.87069 | 39133 ft | 492 kts | 142° |
| 2026-05-09 09:58 | 36.87901 | 29.92677 | 39140 ft | 491 kts | 143° |
| 2026-05-09 09:58 | 36.82750 | 29.98270 | 39136 ft | 490 kts | 143° |
| 2026-05-09 09:59 | 36.77637 | 30.03810 | 39128 ft | 490 kts | 143° |
| 2026-05-09 09:59 | 36.72480 | 30.09387 | 39118 ft | 491 kts | 143° |
| 2026-05-09 10:00 | 36.67318 | 30.14960 | 39112 ft | 491 kts | 143° |
| 2026-05-09 10:00 | 36.62152 | 30.20528 | 39096 ft | 491 kts | 142° |
| 2026-05-09 10:01 | 36.57001 | 30.26069 | 39109 ft | 489 kts | 142° |
| 2026-05-09 10:01 | 36.51835 | 30.31613 | 39098 ft | 491 kts | 143° |
| 2026-05-09 10:02 | 36.46650 | 30.37170 | 39099 ft | 494 kts | 143° |
| 2026-05-09 10:02 | 36.41447 | 30.42736 | 39050 ft | 493 kts | 143° |
| 2026-05-09 10:03 | 36.36259 | 30.48278 | 39058 ft | 492 kts | 143° |
| 2026-05-09 10:03 | 36.31086 | 30.53792 | 39076 ft | 490 kts | 143° |
| 2026-05-09 10:04 | 36.25912 | 30.59297 | 39081 ft | 490 kts | 143° |
| 2026-05-09 10:04 | 36.20735 | 30.64794 | 39080 ft | 490 kts | 143° |
| 2026-05-09 10:05 | 36.15552 | 30.70289 | 39081 ft | 491 kts | 143° |
| 2026-05-09 10:05 | 36.10364 | 30.75780 | 39078 ft | 491 kts | 143° |
| 2026-05-09 10:06 | 36.05170 | 30.81269 | 39081 ft | 491 kts | 143° |
| 2026-05-09 10:06 | 35.99920 | 30.86653 | 39080 ft | 490 kts | 145° |
| 2026-05-09 10:07 | 35.94578 | 30.91875 | 39088 ft | 490 kts | 145° |
| 2026-05-09 10:07 | 35.89229 | 30.97084 | 39086 ft | 490 kts | 145° |
| 2026-05-09 10:08 | 35.83928 | 31.02277 | 39085 ft | 490 kts | 145° |
| 2026-05-09 10:08 | 35.78596 | 31.07512 | 39085 ft | 490 kts | 145° |
| 2026-05-09 10:09 | 35.73269 | 31.12737 | 39088 ft | 490 kts | 145° |
| 2026-05-09 10:09 | 35.67936 | 31.17956 | 39087 ft | 490 kts | 145° |
| 2026-05-09 10:10 | 35.62603 | 31.23166 | 39088 ft | 489 kts | 145° |
| 2026-05-09 10:10 | 35.57271 | 31.28365 | 39088 ft | 489 kts | 145° |
| 2026-05-09 10:11 | 35.51937 | 31.33556 | 39090 ft | 489 kts | 145° |
| 2026-05-09 10:11 | 35.46603 | 31.38739 | 39095 ft | 489 kts | 145° |
| 2026-05-09 10:12 | 35.41266 | 31.43915 | 39089 ft | 489 kts | 145° |
| 2026-05-09 10:12 | 35.35930 | 31.49082 | 39088 ft | 489 kts | 145° |
| 2026-05-09 10:13 | 35.30593 | 31.54240 | 39102 ft | 489 kts | 145° |
| 2026-05-09 10:13 | 35.25252 | 31.59394 | 39093 ft | 489 kts | 145° |
| 2026-05-09 10:14 | 35.19912 | 31.64538 | 39104 ft | 489 kts | 145° |
| 2026-05-09 10:14 | 35.14600 | 31.69645 | 39098 ft | 489 kts | 145° |
| 2026-05-09 10:15 | 35.09253 | 31.74778 | 39102 ft | 489 kts | 145° |
| 2026-05-09 10:15 | 35.03905 | 31.79904 | 39098 ft | 489 kts | 145° |
| 2026-05-09 10:16 | 34.98555 | 31.85022 | 39102 ft | 489 kts | 145° |
| 2026-05-09 10:16 | 34.93198 | 31.90138 | 39102 ft | 489 kts | 145° |
| 2026-05-09 10:17 | 34.87841 | 31.95245 | 39103 ft | 489 kts | 145° |
| 2026-05-09 10:17 | 34.82483 | 32.00345 | 39096 ft | 489 kts | 145° |
| 2026-05-09 10:18 | 34.77124 | 32.05437 | 39104 ft | 489 kts | 145° |
| 2026-05-09 10:18 | 34.71757 | 32.10528 | 39092 ft | 489 kts | 145° |
| 2026-05-09 10:19 | 34.66390 | 32.15610 | 39092 ft | 489 kts | 145° |
| 2026-05-09 10:19 | 34.61023 | 32.20684 | 39085 ft | 489 kts | 145° |
| 2026-05-09 10:20 | 34.55653 | 32.25753 | 39082 ft | 489 kts | 145° |
| 2026-05-09 10:20 | 34.50280 | 32.30815 | 39080 ft | 489 kts | 145° |
| 2026-05-09 10:21 | 34.45049 | 32.35736 | 39081 ft | 489 kts | 145° |
| 2026-05-09 10:21 | 34.39740 | 32.40721 | 39083 ft | 489 kts | 145° |
| 2026-05-09 10:22 | 34.34366 | 32.45760 | 39089 ft | 489 kts | 145° |
| 2026-05-09 10:22 | 34.29025 | 32.50759 | 39090 ft | 489 kts | 145° |
| 2026-05-09 10:23 | 34.23610 | 32.55820 | 39092 ft | 488 kts | 145° |
| 2026-05-09 10:23 | 34.18184 | 32.60641 | 39092 ft | 487 kts | 148° |
| 2026-05-09 10:24 | 34.12610 | 32.65283 | 39093 ft | 487 kts | 149° |
| 2026-05-09 10:24 | 34.07038 | 32.69925 | 39088 ft | 487 kts | 148° |
| 2026-05-09 10:24 | 34.04237 | 32.72275 | 38639 ft | 494 kts | 148° |
| 2026-05-09 10:25 | 34.01417 | 32.74651 | 38063 ft | 493 kts | 148° |
| 2026-05-09 10:25 | 33.98616 | 32.77019 | 37512 ft | 491 kts | 148° |
| 2026-05-09 10:25 | 33.95819 | 32.79383 | 36926 ft | 491 kts | 148° |
| 2026-05-09 10:25 | 33.93028 | 32.81742 | 36360 ft | 490 kts | 148° |
| 2026-05-09 10:26 | 33.90237 | 32.84097 | 35838 ft | 489 kts | 148° |
| 2026-05-09 10:26 | 33.87466 | 32.86433 | 35417 ft | 485 kts | 148° |
| 2026-05-09 10:26 | 33.84710 | 32.88754 | 34989 ft | 482 kts | 148° |
| 2026-05-09 10:26 | 33.81967 | 32.91061 | 34566 ft | 479 kts | 148° |
| 2026-05-09 10:27 | 33.79243 | 32.93350 | 34136 ft | 477 kts | 148° |
| 2026-05-09 10:27 | 33.76524 | 32.95632 | 33649 ft | 475 kts | 148° |
| 2026-05-09 10:27 | 33.73824 | 32.97897 | 33207 ft | 472 kts | 148° |
| 2026-05-09 10:27 | 33.71137 | 33.00149 | 32774 ft | 469 kts | 148° |
| 2026-05-09 10:28 | 33.68472 | 33.02381 | 32355 ft | 466 kts | 148° |
| 2026-05-09 10:28 | 33.65821 | 33.04600 | 31940 ft | 463 kts | 148° |
| 2026-05-09 10:28 | 33.63191 | 33.06800 | 31529 ft | 460 kts | 148° |
| 2026-05-09 10:28 | 33.60576 | 33.08985 | 31124 ft | 457 kts | 148° |
| 2026-05-09 10:29 | 33.57975 | 33.11156 | 30717 ft | 454 kts | 147° |
| 2026-05-09 10:29 | 33.55392 | 33.13312 | 30324 ft | 451 kts | 147° |
| 2026-05-09 10:29 | 33.52823 | 33.15453 | 29880 ft | 449 kts | 147° |
| 2026-05-09 10:29 | 33.50271 | 33.17580 | 29416 ft | 445 kts | 147° |
| 2026-05-09 10:30 | 33.47769 | 33.19663 | 28986 ft | 442 kts | 147° |
| 2026-05-09 10:30 | 33.45222 | 33.21782 | 28559 ft | 438 kts | 147° |
| 2026-05-09 10:30 | 33.42762 | 33.23827 | 28152 ft | 435 kts | 147° |
| 2026-05-09 10:30 | 33.40290 | 33.25882 | 27736 ft | 431 kts | 147° |
| 2026-05-09 10:31 | 33.37832 | 33.27922 | 27329 ft | 428 kts | 147° |
| 2026-05-09 10:31 | 33.35396 | 33.29942 | 26923 ft | 425 kts | 147° |
| 2026-05-09 10:31 | 33.32979 | 33.31946 | 26601 ft | 420 kts | 147° |
| 2026-05-09 10:31 | 33.30596 | 33.33921 | 26351 ft | 414 kts | 147° |
| 2026-05-09 10:32 | 33.28249 | 33.35865 | 26104 ft | 409 kts | 147° |
| 2026-05-09 10:32 | 33.25925 | 33.37788 | 25848 ft | 404 kts | 147° |
| 2026-05-09 10:32 | 33.23607 | 33.39704 | 25627 ft | 408 kts | 147° |
| 2026-05-09 10:32 | 33.21262 | 33.41639 | 25405 ft | 412 kts | 147° |
| 2026-05-09 10:33 | 33.18902 | 33.43586 | 25172 ft | 412 kts | 147° |
| 2026-05-09 10:33 | 33.16560 | 33.45520 | 24932 ft | 408 kts | 147° |
| 2026-05-09 10:33 | 33.14232 | 33.47439 | 24699 ft | 405 kts | 147° |
| 2026-05-09 10:33 | 33.11922 | 33.49344 | 24471 ft | 403 kts | 147° |
| 2026-05-09 10:34 | 33.09621 | 33.51239 | 24238 ft | 400 kts | 147° |
| 2026-05-09 10:34 | 33.05069 | 33.54986 | 23669 ft | 395 kts | 147° |
| 2026-05-09 10:34 | 33.02815 | 33.56838 | 23251 ft | 393 kts | 147° |
| 2026-05-09 10:35 | 33.00571 | 33.58681 | 22839 ft | 390 kts | 147° |
| 2026-05-09 10:35 | 32.98341 | 33.60511 | 22455 ft | 388 kts | 147° |
| 2026-05-09 10:35 | 32.96129 | 33.62327 | 22075 ft | 385 kts | 147° |
| 2026-05-09 10:35 | 32.93926 | 33.64133 | 21701 ft | 383 kts | 147° |
| 2026-05-09 10:36 | 32.91741 | 33.65923 | 21325 ft | 381 kts | 147° |
| 2026-05-09 10:36 | 32.89565 | 33.67706 | 20955 ft | 378 kts | 147° |
| 2026-05-09 10:36 | 32.87402 | 33.69476 | 20587 ft | 376 kts | 147° |
| 2026-05-09 10:36 | 32.85253 | 33.71234 | 20215 ft | 374 kts | 147° |
| 2026-05-09 10:37 | 32.83108 | 33.72987 | 19845 ft | 373 kts | 147° |
| 2026-05-09 10:37 | 32.80976 | 33.74729 | 19476 ft | 371 kts | 147° |
| 2026-05-09 10:37 | 32.79569 | 33.75878 | 19230 ft | 370 kts | 147° |
| 2026-05-09 10:37 | 32.77450 | 33.77607 | 18867 ft | 369 kts | 147° |
| 2026-05-09 10:38 | 32.75340 | 33.79329 | 18504 ft | 367 kts | 147° |
| 2026-05-09 10:38 | 32.73238 | 33.81042 | 18094 ft | 366 kts | 147° |
| 2026-05-09 10:38 | 32.70468 | 33.83299 | 17579 ft | 363 kts | 147° |
| 2026-05-09 10:38 | 32.68394 | 33.84988 | 17206 ft | 360 kts | 147° |
| 2026-05-09 10:39 | 32.66333 | 33.86666 | 16840 ft | 358 kts | 147° |
| 2026-05-09 10:39 | 32.64952 | 33.87790 | 16599 ft | 356 kts | 147° |
| 2026-05-09 10:39 | 32.62915 | 33.89446 | 16243 ft | 353 kts | 147° |
| 2026-05-09 10:39 | 32.60892 | 33.91090 | 15888 ft | 351 kts | 147° |
| 2026-05-09 10:40 | 32.58885 | 33.92719 | 15533 ft | 349 kts | 147° |
| 2026-05-09 10:40 | 32.56936 | 33.94422 | 15165 ft | 348 kts | 138° |
| 2026-05-09 10:40 | 32.55369 | 33.96587 | 14929 ft | 343 kts | 123° |
| 2026-05-09 10:40 | 32.54184 | 33.98967 | 14736 ft | 336 kts | 119° |
| 2026-05-09 10:41 | 32.53068 | 34.01383 | 14532 ft | 333 kts | 118° |
| 2026-05-09 10:41 | 32.51977 | 34.03788 | 14339 ft | 331 kts | 118° |
| 2026-05-09 10:41 | 32.50890 | 34.06183 | 14144 ft | 329 kts | 118° |
| 2026-05-09 10:41 | 32.49799 | 34.08568 | 13949 ft | 328 kts | 119° |
| 2026-05-09 10:42 | 32.48708 | 34.10940 | 13743 ft | 329 kts | 119° |
| 2026-05-09 10:42 | 32.47604 | 34.13324 | 13538 ft | 331 kts | 119° |
| 2026-05-09 10:42 | 32.46493 | 34.15716 | 13322 ft | 331 kts | 119° |
| 2026-05-09 10:42 | 32.45385 | 34.18097 | 13121 ft | 329 kts | 119° |
| 2026-05-09 10:43 | 32.44282 | 34.20459 | 12923 ft | 327 kts | 119° |
| 2026-05-09 10:43 | 32.43184 | 34.22811 | 12731 ft | 325 kts | 119° |
| 2026-05-09 10:43 | 32.42090 | 34.25150 | 12528 ft | 324 kts | 119° |
| 2026-05-09 10:43 | 32.40999 | 34.27479 | 12349 ft | 323 kts | 119° |
| 2026-05-09 10:44 | 32.39914 | 34.29796 | 12154 ft | 321 kts | 119° |
| 2026-05-09 10:44 | 32.38832 | 34.32104 | 11969 ft | 320 kts | 119° |
| 2026-05-09 10:44 | 32.37753 | 34.34404 | 11785 ft | 319 kts | 119° |
| 2026-05-09 10:44 | 32.36677 | 34.36694 | 11594 ft | 318 kts | 119° |
| 2026-05-09 10:45 | 32.35605 | 34.38976 | 11408 ft | 317 kts | 119° |
| 2026-05-09 10:46 | 32.31354 | 34.48014 | 10672 ft | 312 kts | 119° |
| 2026-05-09 10:46 | 32.30299 | 34.50252 | 10481 ft | 311 kts | 119° |
| 2026-05-09 10:46 | 32.29249 | 34.52479 | 10294 ft | 308 kts | 120° |
| 2026-05-09 10:46 | 32.28220 | 34.54662 | 10109 ft | 301 kts | 120° |
| 2026-05-09 10:47 | 32.27213 | 34.56795 | 10003 ft | 291 kts | 120° |
| 2026-05-09 10:47 | 32.26240 | 34.58855 | 9770 ft | 287 kts | 120° |
| 2026-05-09 10:47 | 32.25278 | 34.60893 | 9594 ft | 281 kts | 120° |
| 2026-05-09 10:47 | 32.24334 | 34.62888 | 9399 ft | 276 kts | 120° |
| 2026-05-09 10:48 | 32.23402 | 34.64859 | 9237 ft | 274 kts | 120° |
| 2026-05-09 10:48 | 32.22472 | 34.66824 | 9061 ft | 274 kts | 120° |
| 2026-05-09 10:48 | 32.21544 | 34.68783 | 8907 ft | 273 kts | 120° |
| 2026-05-09 10:48 | 32.20631 | 34.70711 | 8748 ft | 272 kts | 120° |
| 2026-05-09 10:49 | 32.19695 | 34.72685 | 8582 ft | 272 kts | 121° |
| 2026-05-09 10:49 | 32.18772 | 34.74630 | 8422 ft | 272 kts | 121° |
| 2026-05-09 10:49 | 32.17849 | 34.76575 | 8259 ft | 272 kts | 121° |
| 2026-05-09 10:49 | 32.16927 | 34.78518 | 8095 ft | 272 kts | 121° |
| 2026-05-09 10:50 | 32.16015 | 34.80438 | 7945 ft | 272 kts | 121° |
| 2026-05-09 10:50 | 32.15088 | 34.82386 | 7775 ft | 273 kts | 121° |
| 2026-05-09 10:50 | 32.14160 | 34.84334 | 7618 ft | 272 kts | 121° |
| 2026-05-09 10:50 | 32.13237 | 34.86277 | 7462 ft | 270 kts | 121° |
| 2026-05-09 10:51 | 32.12354 | 34.88211 | 7306 ft | 266 kts | 120° |
| 2026-05-09 10:51 | 32.11509 | 34.90141 | 7138 ft | 263 kts | 119° |
| 2026-05-09 10:51 | 32.10672 | 34.92058 | 6970 ft | 263 kts | 120° |
| 2026-05-09 10:51 | 32.09831 | 34.93968 | 6830 ft | 262 kts | 120° |
| 2026-05-09 10:52 | 32.08990 | 34.95882 | 6678 ft | 264 kts | 120° |
| 2026-05-09 10:52 | 32.08144 | 34.97807 | 6516 ft | 264 kts | 120° |
| 2026-05-09 10:52 | 32.07294 | 34.99734 | 6310 ft | 266 kts | 120° |
| 2026-05-09 10:52 | 32.06443 | 35.01658 | 6145 ft | 264 kts | 120° |
| 2026-05-09 10:53 | 32.05597 | 35.03572 | 5993 ft | 263 kts | 119° |
| 2026-05-09 10:53 | 32.04756 | 35.05473 | 5819 ft | 260 kts | 119° |
| 2026-05-09 10:53 | 32.03924 | 35.07348 | 5660 ft | 256 kts | 118° |
| 2026-05-09 10:53 | 32.03102 | 35.09199 | 5516 ft | 254 kts | 118° |
| 2026-05-09 10:54 | 32.02288 | 35.11032 | 5376 ft | 251 kts | 118° |
| 2026-05-09 10:54 | 32.01477 | 35.12828 | 5237 ft | 247 kts | 121° |
| 2026-05-09 10:54 | 32.00275 | 35.14230 | 5073 ft | 243 kts | 150° |
| 2026-05-09 10:54 | 31.98693 | 35.14753 | 4925 ft | 238 kts | 177° |
| 2026-05-09 10:55 | 31.97077 | 35.14423 | 4692 ft | 236 kts | 200° |
| 2026-05-09 10:55 | 31.95647 | 35.13522 | 4504 ft | 227 kts | 211° |
| 2026-05-09 10:55 | 31.94332 | 35.12545 | 4360 ft | 221 kts | 212° |
| 2026-05-09 10:55 | 31.93036 | 35.11584 | 4189 ft | 218 kts | 212° |
| 2026-05-09 10:56 | 31.91769 | 35.10652 | 4011 ft | 212 kts | 214° |
| 2026-05-09 10:56 | 31.90911 | 35.09382 | 3947 ft | 191 kts | 259° |
| 2026-05-09 10:56 | 31.91028 | 35.07857 | 3752 ft | 190 kts | 292° |
| 2026-05-09 10:56 | 31.91509 | 35.06409 | 3504 ft | 191 kts | 295° |
| 2026-05-09 10:57 | 31.92055 | 35.04984 | 3248 ft | 192 kts | 295° |
| 2026-05-09 10:57 | 31.92659 | 35.03602 | 2993 ft | 193 kts | 298° |
| 2026-05-09 10:57 | 31.93314 | 35.02203 | 2716 ft | 195 kts | 303° |
| 2026-05-09 10:57 | 31.94031 | 35.00867 | 2437 ft | 191 kts | 303° |
| 2026-05-09 10:58 | 31.94712 | 34.99580 | 2159 ft | 179 kts | 303° |
| 2026-05-09 10:58 | 31.95343 | 34.98384 | 1939 ft | 168 kts | 307° |
| 2026-05-09 10:58 | 31.95936 | 34.97269 | 1660 ft | 156 kts | 303° |
| 2026-05-09 10:58 | 31.96479 | 34.96218 | 1394 ft | 146 kts | 304° |
| 2026-05-09 10:59 | 31.96988 | 34.95215 | 1308 ft | 141 kts | 303° |
| 2026-05-09 10:59 | 31.97503 | 34.94220 | 1077 ft | 145 kts | 304° |
| 2026-05-09 10:59 | 31.98039 | 34.93191 | 909 ft | 152 kts | 305° |
| 2026-05-09 10:59 | 31.98593 | 34.92117 | 689 ft | 152 kts | 304° |
| 2026-05-09 11:00 | 31.99136 | 34.91063 | 460 ft | 148 kts | 306° |
| 2026-05-09 11:00 | 31.99678 | 34.90043 | 296 ft | 148 kts | 304° |
| 2026-05-09 11:00 | 32.00209 | 34.89018 | 124 ft | 145 kts | 302° |
| 2026-05-09 11:00 | 32.00673 | 34.88121 | 116 ft | 108 kts | 300° |
| 2026-05-09 11:01 | 32.00958 | 34.87567 | 121 ft | 43 kts | 301° |
| 2026-05-09 11:01 | 32.01053 | 34.87314 | 120 ft | 29 kts | 278° |
| 2026-05-09 11:01 | 32.01065 | 34.87114 | 119 ft | 17 kts | 271° |
| 2026-05-09 11:01 | 32.00999 | 34.87067 | 117 ft | 14 kts | 128° |
| 2026-05-09 11:02 | 32.00950 | 34.87161 | 119 ft | 13 kts | 121° |
| 2026-05-09 11:02 | 32.00904 | 34.87252 | 116 ft | 13 kts | 121° |
| 2026-05-09 11:02 | 32.00857 | 34.87340 | 118 ft | 13 kts | 121° |
| 2026-05-09 11:02 | 32.00805 | 34.87441 | 117 ft | 15 kts | 121° |
| 2026-05-09 11:03 | 32.00751 | 34.87544 | 116 ft | 15 kts | 121° |
| 2026-05-09 11:03 | 32.00700 | 34.87644 | 118 ft | 14 kts | 121° |
| 2026-05-09 11:03 | 32.00650 | 34.87739 | 117 ft | 13 kts | 121° |
| 2026-05-09 11:03 | 32.00603 | 34.87830 | 116 ft | 13 kts | 121° |
| 2026-05-09 11:04 | 32.00547 | 34.87883 | 118 ft | 11 kts | 187° |
| 2026-05-09 11:04 | 32.00479 | 34.87841 | 117 ft | 12 kts | 211° |
| 2026-05-09 11:04 | 32.00399 | 34.87783 | 117 ft | 15 kts | 211° |
| 2026-05-09 11:04 | 32.00305 | 34.87717 | 118 ft | 15 kts | 211° |
| 2026-05-09 11:05 | 32.00218 | 34.87655 | 118 ft | 13 kts | 216° |
| 2026-05-09 11:05 | 32.00221 | 34.87566 | 115 ft | 12 kts | 303° |
| 2026-05-09 11:05 | 32.00273 | 34.87514 | 118 ft | 8 kts | 344° |
| 2026-05-09 11:05 | 32.00298 | 34.87505 | 119 ft | 1 kts | 343° |